Аэропорт: Уфа. Уфа

ICAO: UWUU

METAR:
2018/05/20 23:00
UWUU 202300Z 28003MPS CAVOK 13/12 Q1016 R32L/0///60 NOSIG RMK QFE750/1000
METAR:
2018/05/20 21:25
TAF UWUU 201945Z 2021/2121 31005G10MPS 9999 BKN030 
      TEMPO 2021/2024 28007G13MPS SCT040CB 
      TEMPO 2100/2121 34007G13MPS SCT030CB